Time;durP1;ratioP1;P1;durP2;ratioP2;P2;SDS_P1;SDS_P2;PMS_P1;PMS_P2;Temp;Humidity;BMP_temperature;BMP_pressure;BME280_temperature;BME280_humidity;BME280_pressure;Samples;Min_cycle;Max_cycle;Signal;HPM_P1;HPM_P2
2022/10/07 00:00:56;;;;;;;3.55;1.60;;;18.00;99.90;;;;;;4940810;28;20430;-67
2022/10/07 00:03:25;;;;;;;3.45;1.50;;;18.00;99.90;;;;;;4946912;29;20437;-67
2022/10/07 00:06:16;;;;;;;6.60;1.88;;;18.00;99.90;;;;;;4929758;29;20422;-67
2022/10/07 00:08:48;;;;;;;5.50;1.92;;;18.00;99.90;;;;;;4947809;28;20456;-67
2022/10/07 00:11:20;;;;;;;5.00;1.90;;;18.00;99.90;;;;;;4944403;28;20429;-67
2022/10/07 00:13:51;;;;;;;4.00;1.90;;;17.90;99.90;;;;;;4949144;28;21032;-68
2022/10/07 00:16:25;;;;;;;3.97;1.67;;;17.80;99.90;;;;;;4942477;29;20445;-67
2022/10/07 00:18:57;;;;;;;3.57;1.70;;;17.80;99.90;;;;;;4962622;28;20539;-67
2022/10/07 00:21:26;;;;;;;3.75;1.58;;;17.80;99.90;;;;;;4948965;28;20427;-67
2022/10/07 00:23:57;;;;;;;5.22;2.00;;;17.80;99.90;;;;;;4939139;29;20454;-67
2022/10/07 00:26:27;;;;;;;4.25;1.98;;;17.70;99.90;;;;;;4945432;28;20931;-67
2022/10/07 00:28:55;;;;;;;6.47;2.00;;;17.70;99.90;;;;;;4956971;28;20488;-67
2022/10/07 00:31:31;;;;;;;3.65;2.00;;;17.80;99.90;;;;;;4941528;28;20433;-67
2022/10/07 00:33:58;;;;;;;4.63;1.90;;;17.80;99.90;;;;;;4956680;28;20470;-67
2022/10/07 00:36:31;;;;;;;4.90;1.92;;;17.70;99.90;;;;;;4946431;29;20436;-67
2022/10/07 00:39:06;;;;;;;5.65;2.03;;;17.80;99.90;;;;;;4947448;28;20445;-67
2022/10/07 00:41:41;;;;;;;4.70;2.00;;;17.70;99.90;;;;;;4950469;28;20477;-67
2022/10/07 00:44:38;;;;;;;5.20;1.92;;;17.70;99.90;;;;;;4948815;28;20476;-67
2022/10/07 00:47:32;;;;;;;4.53;1.80;;;17.60;99.90;;;;;;4948962;28;20906;-67
2022/10/07 00:50:18;;;;;;;4.82;1.90;;;17.60;99.90;;;;;;4951249;28;21225;-67
2022/10/07 00:52:52;;;;;;;4.55;1.80;;;17.60;99.90;;;;;;4946564;28;20429;-67
2022/10/07 00:55:25;;;;;;;4.90;1.88;;;17.60;99.90;;;;;;4946086;28;21193;-67
2022/10/07 00:57:57;;;;;;;5.00;1.90;;;17.50;99.90;;;;;;4947409;28;21023;-67
2022/10/07 01:00:24;;;;;;;5.53;1.90;;;17.60;99.90;;;;;;4944877;28;20765;-67
2022/10/07 01:02:51;;;;;;;4.95;1.80;;;17.50;99.90;;;;;;4959465;28;20456;-67
2022/10/07 01:05:19;;;;;;;5.47;2.05;;;17.40;99.90;;;;;;4929961;29;20418;-67
2022/10/07 01:07:49;;;;;;;6.22;2.15;;;17.40;99.90;;;;;;4949723;28;20504;-66
2022/10/07 01:10:20;;;;;;;6.25;2.10;;;17.40;99.90;;;;;;4946424;28;20421;-66
2022/10/07 01:13:04;;;;;;;4.63;2.00;;;17.40;99.90;;;;;;4939821;28;20432;-66
2022/10/07 01:15:59;;;;;;;5.10;2.30;;;17.50;99.90;;;;;;4941728;28;20437;-66
2022/10/07 01:18:51;;;;;;;3.70;1.80;;;17.50;99.90;;;;;;4940258;28;20801;-66
2022/10/07 01:22:05;;;;;;;7.32;2.40;;;17.50;99.90;;;;;;4948171;28;20484;-66
2022/10/07 01:25:26;;;;;;;4.95;2.03;;;17.50;99.90;;;;;;4935819;29;20963;-66
2022/10/07 01:28:13;;;;;;;4.53;2.17;;;17.50;99.90;;;;;;4953786;28;20440;-66
2022/10/07 01:30:47;;;;;;;6.10;2.22;;;17.50;99.90;;;;;;4943797;28;20489;-66
2022/10/07 01:33:19;;;;;;;4.15;2.13;;;17.50;99.90;;;;;;4935366;28;20851;-66
2022/10/07 01:35:50;;;;;;;6.28;2.40;;;17.40;99.90;;;;;;4946692;28;20431;-66
2022/10/07 01:38:21;;;;;;;4.47;2.40;;;17.40;99.90;;;;;;4953317;28;20430;-65
2022/10/07 01:41:07;;;;;;;5.60;2.10;;;17.40;99.90;;;;;;4952162;28;20426;-66
2022/10/07 01:43:35;;;;;;;6.90;2.33;;;17.40;99.90;;;;;;4939567;29;20422;-66
2022/10/07 01:46:05;;;;;;;5.65;2.30;;;17.40;99.90;;;;;;4941776;28;20457;-66
2022/10/07 01:48:32;;;;;;;4.05;2.22;;;17.40;99.90;;;;;;4940190;29;20733;-66
2022/10/07 01:51:01;;;;;;;4.18;2.17;;;17.50;99.90;;;;;;4941734;28;20425;-66
2022/10/07 01:54:18;;;;;;;6.60;2.10;;;17.50;99.90;;;;;;4941175;29;20511;-66
2022/10/07 01:57:17;;;;;;;7.00;1.95;;;17.50;99.90;;;;;;4956068;28;21150;-66
2022/10/07 02:00:02;;;;;;;8.87;2.10;;;17.50;99.90;;;;;;4941710;29;20433;-66
2022/10/07 02:02:57;;;;;;;5.40;2.08;;;17.50;99.90;;;;;;4941556;28;20425;-66
2022/10/07 02:05:48;;;;;;;7.60;2.40;;;17.50;99.90;;;;;;4953769;28;20488;-66
2022/10/07 02:08:38;;;;;;;6.68;2.45;;;17.50;99.90;;;;;;4927563;29;20437;-66
2022/10/07 02:11:17;;;;;;;3.22;2.10;;;17.50;99.90;;;;;;4943379;29;20430;-66
2022/10/07 02:14:17;;;;;;;5.63;2.50;;;17.40;99.90;;;;;;4947227;29;20442;-66
2022/10/07 02:17:02;;;;;;;5.65;2.20;;;17.40;99.90;;;;;;4945459;29;20437;-66
2022/10/07 02:19:34;;;;;;;5.25;2.58;;;17.40;99.90;;;;;;4944445;29;20538;-66
2022/10/07 02:22:03;;;;;;;5.60;2.30;;;17.50;99.90;;;;;;4958561;28;21255;-66
2022/10/07 02:24:34;;;;;;;5.87;2.63;;;17.50;99.90;;;;;;4945721;28;20425;-66
2022/10/07 02:27:09;;;;;;;8.15;2.78;;;17.50;99.90;;;;;;4945849;29;20783;-67
2022/10/07 02:29:41;;;;;;;6.05;2.28;;;17.50;99.90;;;;;;4928116;29;20440;-66
2022/10/07 02:32:16;;;;;;;5.55;2.10;;;17.40;99.90;;;;;;4944490;29;21185;-66
2022/10/07 02:34:45;;;;;;;6.32;2.30;;;17.40;99.90;;;;;;4938994;28;20433;-66
2022/10/07 02:37:18;;;;;;;5.80;2.25;;;17.30;99.90;;;;;;4945923;29;20421;-66
2022/10/07 02:39:45;;;;;;;4.65;2.33;;;17.30;99.90;;;;;;4945825;28;20954;-66
2022/10/07 02:42:23;;;;;;;5.40;2.30;;;17.20;99.90;;;;;;4945696;28;20421;-66
2022/10/07 02:45:07;;;;;;;4.63;2.40;;;17.20;99.90;;;;;;4933317;29;20413;-67
2022/10/07 02:47:53;;;;;;;6.93;2.63;;;17.20;99.90;;;;;;4945066;28;20418;-66
2022/10/07 02:50:30;;;;;;;6.00;2.63;;;17.20;99.90;;;;;;4946418;28;20904;-66
2022/10/07 02:53:00;;;;;;;7.82;2.50;;;17.20;99.90;;;;;;4945441;29;20446;-67
2022/10/07 02:55:27;;;;;;;5.57;2.60;;;17.20;99.90;;;;;;4944784;28;20520;-66
2022/10/07 02:58:01;;;;;;;4.95;2.30;;;17.30;99.90;;;;;;4944714;29;20429;-66
2022/10/07 03:00:36;;;;;;;4.80;2.20;;;17.30;99.90;;;;;;4945407;28;20449;-66
2022/10/07 03:03:04;;;;;;;6.03;2.50;;;17.30;99.90;;;;;;4942469;29;21292;-66
2022/10/07 03:05:34;;;;;;;8.63;2.70;;;17.30;99.90;;;;;;4938828;29;20469;-66
2022/10/07 03:08:07;;;;;;;7.53;2.40;;;17.30;99.90;;;;;;4942299;29;20462;-66
2022/10/07 03:10:34;;;;;;;7.53;2.70;;;17.40;99.90;;;;;;4945189;28;20454;-66
2022/10/07 03:13:04;;;;;;;6.20;2.75;;;17.40;99.90;;;;;;4945899;29;20425;-67
2022/10/07 03:15:34;;;;;;;6.90;2.63;;;17.40;99.90;;;;;;4945525;29;20441;-66
2022/10/07 03:18:01;;;;;;;6.77;2.67;;;17.40;99.90;;;;;;4928490;29;20490;-66
2022/10/07 03:20:31;;;;;;;5.53;2.60;;;17.40;99.90;;;;;;4958838;28;20518;-68
2022/10/07 03:22:58;;;;;;;6.10;2.70;;;17.40;99.90;;;;;;4943780;28;20477;-66
2022/10/07 03:25:26;;;;;;;8.57;2.72;;;17.40;99.90;;;;;;4942325;28;20437;-67
2022/10/07 03:27:56;;;;;;;6.63;2.90;;;17.40;99.90;;;;;;4945716;28;20954;-66
2022/10/07 03:30:22;;;;;;;7.50;2.70;;;17.40;99.90;;;;;;4948009;28;20464;-66
2022/10/07 03:32:49;;;;;;;6.07;2.67;;;17.40;99.90;;;;;;4945166;28;20453;-68
2022/10/07 03:35:16;;;;;;;7.82;2.90;;;17.50;99.90;;;;;;4943358;29;21385;-66
2022/10/07 03:37:42;;;;;;;6.80;2.60;;;17.50;99.90;;;;;;4940955;28;20425;-66
2022/10/07 03:40:09;;;;;;;5.75;2.67;;;17.50;99.90;;;;;;4944587;29;20425;-66
2022/10/07 03:42:35;;;;;;;6.53;2.83;;;17.50;99.90;;;;;;4943740;28;20410;-66
2022/10/07 03:45:02;;;;;;;5.05;2.70;;;17.60;99.90;;;;;;4944931;28;20516;-66
2022/10/07 03:47:28;;;;;;;5.88;2.67;;;17.60;99.90;;;;;;4943680;28;20783;-66
2022/10/07 03:49:56;;;;;;;5.95;2.65;;;17.60;99.90;;;;;;4944129;28;20418;-66
2022/10/07 03:52:23;;;;;;;6.55;2.90;;;17.60;99.90;;;;;;4958104;28;20524;-66
2022/10/07 03:54:49;;;;;;;6.93;2.85;;;17.60;99.90;;;;;;4943372;29;20421;-66
2022/10/07 03:58:01;;;;;;;7.70;2.70;;;17.60;99.90;;;;;;4942482;29;20919;-66
2022/10/07 04:00:03;;;;;;;10.82;3.13;;;17.60;99.90;;;;;;4947398;28;20441;-66
2022/10/07 04:02:29;;;;;;;8.23;2.90;;;17.60;99.90;;;;;;4944502;28;20635;-66
2022/10/07 04:04:56;;;;;;;7.43;2.70;;;17.60;99.90;;;;;;4956442;28;20426;-66
2022/10/07 04:07:22;;;;;;;8.68;2.97;;;17.60;99.90;;;;;;4939320;28;20447;-66
2022/10/07 04:09:49;;;;;;;9.50;3.17;;;17.70;99.90;;;;;;4942795;29;20476;-66
2022/10/07 04:12:15;;;;;;;5.60;2.80;;;17.70;99.90;;;;;;4942522;29;20456;-66
2022/10/07 04:14:41;;;;;;;8.57;2.85;;;17.70;99.90;;;;;;4926340;29;20421;-66
2022/10/07 04:17:08;;;;;;;6.90;2.80;;;17.70;99.90;;;;;;4943605;28;20516;-66
2022/10/07 04:19:34;;;;;;;6.47;2.85;;;17.70;99.90;;;;;;4943543;28;20421;-66
2022/10/07 04:22:01;;;;;;;8.32;2.80;;;17.70;99.90;;;;;;4947044;28;20453;-66
2022/10/07 04:24:30;;;;;;;5.75;2.65;;;17.70;99.90;;;;;;4943888;28;20953;-66
2022/10/07 04:26:57;;;;;;;9.45;2.85;;;17.70;99.90;;;;;;4942482;28;21295;-66
2022/10/07 04:29:24;;;;;;;8.00;2.83;;;17.70;99.90;;;;;;4943978;28;20430;-66
2022/10/07 04:31:51;;;;;;;4.97;2.78;;;17.70;99.90;;;;;;4942539;28;20942;-66
2022/10/07 04:34:17;;;;;;;7.05;3.10;;;17.70;99.90;;;;;;4944028;28;20448;-66
2022/10/07 04:36:44;;;;;;;8.00;2.80;;;17.70;99.90;;;;;;4943481;28;20429;-66
2022/10/07 04:39:11;;;;;;;8.38;2.85;;;17.80;99.90;;;;;;4939673;29;20430;-66
2022/10/07 04:41:37;;;;;;;9.20;2.70;;;17.80;99.90;;;;;;4940869;28;20422;-66
2022/10/07 04:44:04;;;;;;;7.50;3.00;;;17.80;99.90;;;;;;4958304;28;20487;-67
2022/10/07 04:46:31;;;;;;;6.40;2.95;;;17.80;99.90;;;;;;4944521;28;20440;-67
2022/10/07 04:48:57;;;;;;;5.68;2.90;;;17.90;99.90;;;;;;4942988;28;20430;-66
2022/10/07 04:51:24;;;;;;;10.55;3.30;;;17.90;99.90;;;;;;4942594;28;20445;-66
2022/10/07 04:53:51;;;;;;;6.82;3.03;;;17.90;99.90;;;;;;4929547;29;20772;-66
2022/10/07 04:56:21;;;;;;;7.82;2.70;;;17.90;99.90;;;;;;4941973;28;21690;-66
2022/10/07 04:58:48;;;;;;;6.40;2.90;;;18.00;99.90;;;;;;4943590;29;20445;-66
2022/10/07 05:01:15;;;;;;;8.07;2.95;;;18.00;99.90;;;;;;4925469;29;20424;-66
2022/10/07 05:03:41;;;;;;;7.18;2.83;;;18.00;99.90;;;;;;4953545;28;20477;-66
2022/10/07 05:06:08;;;;;;;8.65;2.97;;;18.10;99.90;;;;;;4942255;28;20753;-66
2022/10/07 05:08:35;;;;;;;6.43;2.70;;;18.10;99.90;;;;;;4940144;28;20414;-66
2022/10/07 05:11:04;;;;;;;7.35;2.72;;;18.10;99.90;;;;;;4940130;29;20425;-66
2022/10/07 05:13:33;;;;;;;7.10;2.67;;;18.20;99.90;;;;;;4943098;29;20421;-66
2022/10/07 05:16:02;;;;;;;6.75;3.00;;;18.20;99.90;;;;;;4942284;28;20418;-66
2022/10/07 05:18:30;;;;;;;7.87;2.90;;;18.20;99.90;;;;;;4955906;28;20421;-66
2022/10/07 05:20:57;;;;;;;8.55;3.00;;;18.30;99.90;;;;;;4942779;28;20429;-66
2022/10/07 05:23:25;;;;;;;4.33;2.40;;;18.30;99.90;;;;;;4944118;28;20429;-66
2022/10/07 05:26:06;;;;;;;9.52;2.90;;;18.20;99.90;;;;;;4941926;28;20978;-66
2022/10/07 05:28:36;;;;;;;8.68;2.92;;;18.20;99.90;;;;;;4942582;28;20581;-66
2022/10/07 05:31:11;;;;;;;8.10;2.63;;;18.20;99.90;;;;;;4942364;29;20487;-66
2022/10/07 05:33:40;;;;;;;7.43;2.90;;;18.20;99.90;;;;;;4942653;28;20425;-67
2022/10/07 05:36:08;;;;;;;8.77;3.00;;;18.20;99.90;;;;;;4942438;28;20425;-66
2022/10/07 05:38:35;;;;;;;8.85;3.05;;;18.30;99.90;;;;;;4940853;28;20420;-66
2022/10/07 05:41:05;;;;;;;9.98;3.05;;;18.30;99.90;;;;;;4939463;28;20872;-66
2022/10/07 05:43:40;;;;;;;8.48;2.65;;;18.40;99.90;;;;;;4938551;28;20456;-66
2022/10/07 05:46:14;;;;;;;8.68;3.20;;;18.40;99.90;;;;;;4941576;28;20613;-66
2022/10/07 05:48:45;;;;;;;15.77;3.30;;;18.50;99.90;;;;;;4945248;29;21011;-67
2022/10/07 05:51:13;;;;;;;8.23;2.90;;;18.50;99.90;;;;;;4937500;28;22014;-67
2022/10/07 05:53:41;;;;;;;7.90;2.63;;;18.60;99.90;;;;;;4939299;29;21256;-67
2022/10/07 05:56:11;;;;;;;11.20;2.80;;;18.70;99.90;;;;;;4927808;28;20491;-68
2022/10/07 05:58:37;;;;;;;9.70;2.80;;;18.80;99.90;;;;;;4942024;28;20453;-67
2022/10/07 06:01:06;;;;;;;9.73;2.60;;;19.00;99.90;;;;;;4957189;28;20504;-67
2022/10/07 06:03:33;;;;;;;10.93;2.92;;;19.10;99.90;;;;;;4941035;29;20418;-68
2022/10/07 06:05:59;;;;;;;14.48;3.20;;;19.20;99.90;;;;;;4941748;28;20433;-68
2022/10/07 06:08:26;;;;;;;11.37;2.97;;;19.40;99.90;;;;;;4942330;28;20929;-67
2022/10/07 06:13:38;;;;;;;8.32;2.50;;;19.60;99.90;;;;;;4955126;28;20438;-66
2022/10/07 06:16:08;;;;;;;6.90;2.60;;;19.50;99.90;;;;;;4939933;29;20465;-68
2022/10/07 06:18:38;;;;;;;10.00;2.87;;;19.40;99.90;;;;;;4958242;28;20434;-68
2022/10/07 06:21:05;;;;;;;7.55;2.38;;;19.40;99.90;;;;;;4939774;28;20484;-68
2022/10/07 06:23:33;;;;;;;8.60;2.55;;;19.50;99.90;;;;;;4955412;28;20965;-68
2022/10/07 06:26:06;;;;;;;8.63;2.45;;;19.50;99.90;;;;;;4939591;29;20804;-69
2022/10/07 06:28:39;;;;;;;9.13;2.57;;;19.80;99.90;;;;;;4942405;29;20484;-69
2022/10/07 06:31:09;;;;;;;6.30;2.40;;;19.80;99.90;;;;;;4943016;28;20429;-68
2022/10/07 06:33:36;;;;;;;5.50;2.20;;;19.80;99.90;;;;;;4942256;28;20428;-69
2022/10/07 06:36:11;;;;;;;5.75;2.70;;;19.80;99.90;;;;;;4942473;28;20512;-69
2022/10/07 06:38:42;;;;;;;7.83;2.40;;;19.80;99.90;;;;;;4944154;28;20887;-69
2022/10/07 06:41:10;;;;;;;8.83;2.43;;;19.80;99.90;;;;;;4962011;28;21032;-69
2022/10/07 06:43:37;;;;;;;7.13;2.40;;;19.90;99.90;;;;;;4956990;28;21007;-69
2022/10/07 06:46:10;;;;;;;8.48;2.60;;;20.00;99.90;;;;;;4944651;28;20437;-68
2022/10/07 06:48:40;;;;;;;7.88;2.47;;;20.00;99.90;;;;;;4946282;29;20492;-68
2022/10/07 06:51:15;;;;;;;7.78;2.50;;;20.00;99.90;;;;;;4943467;28;20508;-68
2022/10/07 06:53:42;;;;;;;7.68;2.40;;;20.10;99.90;;;;;;4942487;28;20574;-68
2022/10/07 06:56:13;;;;;;;6.13;2.47;;;20.10;99.90;;;;;;4946050;28;20440;-68
2022/10/07 06:58:42;;;;;;;7.88;2.50;;;20.20;99.90;;;;;;4951661;28;20800;-68
2022/10/07 07:01:09;;;;;;;7.20;2.20;;;20.40;99.90;;;;;;4933400;29;20986;-68
2022/10/07 07:03:35;;;;;;;6.25;2.47;;;20.50;99.90;;;;;;4947594;28;20516;-68
2022/10/07 07:06:02;;;;;;;7.88;2.53;;;20.60;99.90;;;;;;4949469;28;20432;-68
2022/10/07 07:08:30;;;;;;;10.43;2.50;;;20.60;99.90;;;;;;4952228;28;20523;-68
2022/10/07 07:13:56;;;;;;;6.28;2.40;;;20.50;99.90;;;;;;4960846;28;20444;-67
2022/10/07 07:16:23;;;;;;;8.18;2.55;;;20.40;99.90;;;;;;4949510;28;20425;-67
2022/10/07 07:18:55;;;;;;;8.63;2.55;;;20.40;99.90;;;;;;4949723;29;20418;-67
2022/10/07 07:21:23;;;;;;;6.25;2.42;;;20.40;99.90;;;;;;4950650;28;20421;-67
2022/10/07 07:23:50;;;;;;;5.57;2.35;;;20.50;99.90;;;;;;4941904;29;20433;-67
2022/10/07 07:26:19;;;;;;;10.10;2.60;;;20.50;99.90;;;;;;4950037;28;21210;-67
2022/10/07 07:28:51;;;;;;;9.73;2.40;;;20.50;99.90;;;;;;4951114;29;20461;-67
2022/10/07 07:31:17;;;;;;;8.30;2.60;;;20.60;99.90;;;;;;4942089;29;20432;-67
2022/10/07 07:33:51;;;;;;;8.43;2.50;;;20.60;99.90;;;;;;4951868;28;20869;-68
2022/10/07 07:36:21;;;;;;;7.47;2.42;;;20.70;99.90;;;;;;4952014;28;20600;-68
2022/10/07 07:38:54;;;;;;;8.32;2.80;;;20.70;99.90;;;;;;4942125;29;20449;-68
2022/10/07 07:41:27;;;;;;;11.45;2.72;;;20.70;99.90;;;;;;4949711;28;20491;-68
2022/10/07 07:43:59;;;;;;;6.47;2.37;;;20.70;99.90;;;;;;4941029;29;20484;-69
2022/10/07 07:46:35;;;;;;;9.60;2.75;;;20.70;99.90;;;;;;4945421;29;20768;-68
2022/10/07 07:49:03;;;;;;;8.35;2.70;;;20.70;99.90;;;;;;4946351;28;20433;-68
2022/10/07 07:51:31;;;;;;;9.32;2.67;;;20.70;99.90;;;;;;4946283;28;20426;-67
2022/10/07 07:53:58;;;;;;;5.33;2.67;;;20.80;99.90;;;;;;4962385;28;20532;-68
2022/10/07 07:56:28;;;;;;;9.02;2.85;;;20.70;99.90;;;;;;4964729;28;20468;-67
2022/10/07 07:58:58;;;;;;;8.57;3.00;;;20.80;99.90;;;;;;4950031;28;20414;-67
2022/10/07 08:01:25;;;;;;;11.30;2.55;;;20.90;99.90;;;;;;4945624;28;21014;-67
2022/10/07 08:03:52;;;;;;;12.25;3.25;;;21.10;99.90;;;;;;4946221;28;20903;-67
2022/10/07 08:06:20;;;;;;;9.25;2.75;;;21.20;99.90;;;;;;4947657;28;20422;-67
2022/10/07 08:08:47;;;;;;;7.85;2.65;;;21.30;99.90;;;;;;4947334;28;20442;-67
2022/10/07 08:11:18;;;;;;;6.07;2.40;;;21.30;99.90;;;;;;4956591;28;20417;-67
2022/10/07 08:13:45;;;;;;;8.10;2.80;;;21.40;99.90;;;;;;4943937;28;20455;-67
2022/10/07 08:16:16;;;;;;;9.90;2.72;;;21.50;99.90;;;;;;4940545;28;20437;-67
2022/10/07 08:18:48;;;;;;;6.67;2.57;;;21.50;99.90;;;;;;4948726;28;20982;-66
2022/10/07 08:21:19;;;;;;;7.63;2.70;;;21.50;99.90;;;;;;4948673;29;20517;-67
2022/10/07 08:23:47;;;;;;;6.73;2.63;;;21.40;99.90;;;;;;4948137;28;20752;-67
2022/10/07 08:26:13;;;;;;;5.18;2.33;;;21.30;99.90;;;;;;4930872;29;20210;-67
2022/10/07 08:28:40;;;;;;;7.23;2.60;;;21.30;99.90;;;;;;4947771;29;20934;-67
2022/10/07 08:31:13;;;;;;;10.10;2.20;;;21.20;99.90;;;;;;4945002;28;20187;-67
2022/10/07 08:33:43;;;;;;;11.17;2.53;;;21.30;99.90;;;;;;4959617;28;20719;-67
2022/10/07 08:36:20;;;;;;;11.00;2.70;;;21.40;99.90;;;;;;4951570;28;20453;-68
2022/10/07 08:38:48;;;;;;;28.00;3.80;;;21.60;99.90;;;;;;4949712;28;20516;-68
2022/10/07 08:41:32;;;;;;;8.57;2.63;;;21.70;99.90;;;;;;4946040;29;20281;-68
2022/10/07 08:44:17;;;;;;;6.20;2.27;;;21.90;99.90;;;;;;4944073;28;20671;-67
2022/10/07 08:46:56;;;;;;;7.17;2.43;;;22.00;99.90;;;;;;4943240;28;20212;-67
2022/10/07 08:49:52;;;;;;;6.43;2.70;;;22.10;99.90;;;;;;4944300;28;20206;-68
2022/10/07 08:52:36;;;;;;;6.70;2.60;;;22.30;99.90;;;;;;4957487;28;20199;-68
2022/10/07 08:55:39;;;;;;;8.77;2.30;;;22.40;99.90;;;;;;4950805;29;20199;-67
2022/10/07 08:58:33;;;;;;;12.33;2.77;;;22.50;99.90;;;;;;4934288;29;20191;-68
2022/10/07 09:01:23;;;;;;;8.07;2.57;;;22.30;99.90;;;;;;4951556;29;20258;-67
2022/10/07 09:04:23;;;;;;;4.80;2.40;;;22.20;99.90;;;;;;4945909;28;20190;-67
2022/10/07 09:07:12;;;;;;;5.43;2.23;;;22.10;99.90;;;;;;4928263;28;20186;-67
2022/10/07 09:10:04;;;;;;;6.77;2.70;;;22.20;99.90;;;;;;4960134;28;20806;-68
2022/10/07 09:12:48;;;;;;;7.07;2.50;;;22.30;99.90;;;;;;4942579;29;20195;-68
2022/10/07 09:15:38;;;;;;;10.77;2.83;;;22.30;99.90;;;;;;4941572;28;20230;-67
2022/10/07 09:18:30;;;;;;;13.50;2.70;;;22.20;99.90;;;;;;4938839;28;20187;-68
2022/10/07 09:20:57;;;;;;;7.37;2.13;;;22.20;99.90;;;;;;4943873;29;20564;-67
2022/10/07 09:23:32;;;;;;;7.13;2.47;;;22.20;99.90;;;;;;4944046;29;20562;-67
2022/10/07 09:25:59;;;;;;;6.75;2.30;;;22.30;99.90;;;;;;4939828;29;20196;-68
2022/10/07 09:28:31;;;;;;;5.93;2.13;;;22.40;99.90;;;;;;4949163;28;20518;-68
2022/10/07 09:30:59;;;;;;;7.53;2.15;;;22.60;99.90;;;;;;4962540;28;20187;-68
2022/10/07 09:33:28;;;;;;;6.20;2.43;;;22.80;99.90;;;;;;4949758;29;20218;-68
2022/10/07 09:36:08;;;;;;;4.75;2.00;;;23.10;99.90;;;;;;4933419;28;20218;-68
2022/10/07 09:38:45;;;;;;;4.72;2.17;;;23.30;99.90;;;;;;4950062;29;20223;-68
2022/10/07 09:41:16;;;;;;;6.45;2.00;;;23.20;99.90;;;;;;4940546;28;20545;-68
2022/10/07 09:44:05;;;;;;;6.65;2.10;;;23.20;99.90;;;;;;4928921;28;20185;-68
2022/10/07 09:47:15;;;;;;;7.35;2.10;;;23.30;99.90;;;;;;4940047;29;20191;-67
2022/10/07 09:49:50;;;;;;;7.20;2.33;;;23.40;99.90;;;;;;4948157;28;20642;-67
2022/10/07 09:52:25;;;;;;;4.30;1.90;;;23.70;99.90;;;;;;4943495;29;20198;-67
2022/10/07 09:54:57;;;;;;;6.38;2.30;;;23.90;99.90;;;;;;4940752;28;20265;-67
2022/10/07 09:57:33;;;;;;;6.75;1.92;;;24.10;99.90;;;;;;4948966;28;20202;-67
2022/10/07 10:00:12;;;;;;;7.80;1.92;;;24.30;99.90;;;;;;4948979;28;20205;-67
2022/10/07 10:02:45;;;;;;;5.63;2.20;;;24.70;99.90;;;;;;4947585;28;20241;-67
2022/10/07 10:05:32;;;;;;;9.15;2.30;;;25.00;99.90;;;;;;4945944;29;20294;-66
2022/10/07 10:08:32;;;;;;;9.48;2.45;;;24.90;99.90;;;;;;4946157;28;20666;-66
2022/10/07 10:11:06;;;;;;;8.30;2.42;;;24.90;99.90;;;;;;4948759;28;20195;-67
2022/10/07 10:13:39;;;;;;;9.90;2.15;;;24.90;99.90;;;;;;4964313;28;20195;-67
2022/10/07 10:16:24;;;;;;;13.27;2.58;;;25.00;99.90;;;;;;4963853;28;20343;-67
2022/10/07 10:18:58;;;;;;;10.57;2.10;;;25.00;99.90;;;;;;4957963;28;20291;-67
2022/10/07 10:21:40;;;;;;;5.57;1.77;;;25.10;99.90;;;;;;4946789;28;20199;-68
2022/10/07 10:24:16;;;;;;;5.30;1.63;;;25.60;99.90;;;;;;4947313;28;20199;-67
2022/10/07 10:27:03;;;;;;;5.80;2.17;;;26.00;99.90;;;;;;4950549;28;20283;-67
2022/10/07 10:29:54;;;;;;;4.07;2.05;;;26.00;99.90;;;;;;4940482;28;20202;-67
2022/10/07 10:33:29;;;;;;;9.27;2.33;;;25.50;99.90;;;;;;4941632;28;20198;-67
2022/10/07 10:36:20;;;;;;;9.75;2.35;;;24.90;99.90;;;;;;4927591;28;20712;-67
2022/10/07 10:39:28;;;;;;;6.47;1.98;;;24.50;99.90;;;;;;4951261;28;20194;-67
2022/10/07 10:42:13;;;;;;;6.47;2.10;;;24.50;99.90;;;;;;4952275;29;20203;-67
2022/10/07 10:45:12;;;;;;;13.98;2.30;;;24.30;99.90;;;;;;4934335;28;20209;-67
2022/10/07 10:47:59;;;;;;;25.48;3.17;;;24.30;99.90;;;;;;4942346;29;20194;-68
2022/10/07 10:51:38;;;;;;;7.80;2.15;;;24.20;99.90;;;;;;4949255;28;20202;-67
2022/10/07 10:54:30;;;;;;;24.17;2.80;;;24.10;99.90;;;;;;4939307;29;20217;-66
2022/10/07 10:57:19;;;;;;;11.18;2.80;;;24.10;99.90;;;;;;4954049;28;20211;-67
2022/10/07 11:00:11;;;;;;;8.15;2.42;;;24.10;99.90;;;;;;4952641;29;20696;-67
2022/10/07 11:02:38;;;;;;;12.95;2.45;;;24.30;99.90;;;;;;4954418;28;20254;-67
2022/10/07 11:05:19;;;;;;;16.13;2.53;;;24.60;99.90;;;;;;4954045;28;20194;-68
2022/10/07 11:07:53;;;;;;;12.80;2.22;;;24.80;99.90;;;;;;4953134;28;20190;-68
2022/10/07 11:10:39;;;;;;;7.55;2.30;;;24.90;99.90;;;;;;4946914;29;20202;-66
2022/10/07 11:13:49;;;;;;;9.40;2.08;;;24.70;99.90;;;;;;4949408;29;20203;-68
2022/10/07 11:16:40;;;;;;;6.50;2.10;;;24.50;99.90;;;;;;4948636;28;20243;-68
2022/10/07 11:19:47;;;;;;;10.80;2.47;;;24.40;99.90;;;;;;4951171;29;20215;-66
2022/10/07 11:22:24;;;;;;;6.88;2.58;;;24.30;99.90;;;;;;4964711;28;20190;-68
2022/10/07 11:24:59;;;;;;;8.85;2.60;;;24.20;99.90;;;;;;4951743;29;20210;-68
2022/10/07 11:27:34;;;;;;;7.72;2.55;;;24.20;99.90;;;;;;4954679;28;20198;-66
2022/10/07 11:30:22;;;;;;;13.93;3.05;;;24.30;99.90;;;;;;4953418;28;20194;-68
2022/10/07 11:33:31;;;;;;;4.97;2.03;;;24.40;99.90;;;;;;4953040;28;20193;-67
2022/10/07 11:36:37;;;;;;;9.30;2.28;;;24.50;99.90;;;;;;4936127;28;20266;-68
2022/10/07 11:39:04;;;;;;;9.10;2.40;;;24.70;99.90;;;;;;4953589;28;20545;-68
2022/10/07 11:41:48;;;;;;;8.07;2.45;;;24.90;99.90;;;;;;4965559;28;20241;-68
2022/10/07 11:44:40;;;;;;;6.68;2.35;;;24.80;99.90;;;;;;4945449;29;20199;-67
2022/10/07 11:47:19;;;;;;;8.70;2.55;;;24.60;99.90;;;;;;4964938;28;20554;-68
2022/10/07 11:49:56;;;;;;;7.53;2.80;;;24.40;99.90;;;;;;4949359;28;20191;-68
2022/10/07 11:52:32;;;;;;;9.48;2.53;;;24.00;99.90;;;;;;4954446;28;20194;-68
2022/10/07 11:55:38;;;;;;;7.88;2.67;;;24.10;99.90;;;;;;4956906;28;20190;-67
2022/10/07 11:58:05;;;;;;;12.82;3.20;;;24.20;99.90;;;;;;4962395;28;20222;-68
2022/10/07 12:00:39;;;;;;;8.23;2.65;;;24.30;99.90;;;;;;4948603;29;20887;-68
2022/10/07 12:03:17;;;;;;;8.48;2.70;;;24.30;99.90;;;;;;4951799;28;20723;-68
2022/10/07 12:05:49;;;;;;;7.47;2.63;;;24.30;99.90;;;;;;4950470;28;20261;-67
2022/10/07 12:08:40;;;;;;;7.32;2.50;;;24.40;99.90;;;;;;4939736;28;20203;-68
2022/10/07 12:11:15;;;;;;;11.60;2.97;;;24.40;99.90;;;;;;4964376;28;20199;-68
2022/10/07 12:13:51;;;;;;;6.60;2.40;;;24.50;99.90;;;;;;4951088;28;20182;-68
2022/10/07 12:16:31;;;;;;;7.80;2.75;;;24.40;99.90;;;;;;4944968;29;20265;-68
2022/10/07 12:19:06;;;;;;;11.45;2.58;;;24.40;99.90;;;;;;4959852;28;20194;-68
2022/10/07 12:22:14;;;;;;;8.13;2.30;;;24.40;99.90;;;;;;4950748;28;20182;-68
2022/10/07 12:24:44;;;;;;;16.65;2.55;;;24.30;99.90;;;;;;4948666;29;20201;-68
2022/10/07 12:27:27;;;;;;;17.90;3.08;;;24.30;99.90;;;;;;4950269;28;20191;-68
2022/10/07 12:30:01;;;;;;;11.50;2.47;;;24.30;99.90;;;;;;4949701;29;20191;-68
2022/10/07 12:32:49;;;;;;;12.60;3.00;;;24.10;99.90;;;;;;4960694;28;20581;-68
2022/10/07 12:35:33;;;;;;;9.93;2.20;;;24.10;99.90;;;;;;4944174;28;20210;-68
2022/10/07 12:38:18;;;;;;;8.07;2.28;;;24.10;99.90;;;;;;4928899;28;20183;-68
2022/10/07 12:41:11;;;;;;;8.98;2.47;;;24.00;99.90;;;;;;4949696;29;20282;-68
2022/10/07 12:43:59;;;;;;;5.85;1.98;;;24.00;99.90;;;;;;4949470;28;20187;-68
2022/10/07 12:46:52;;;;;;;7.07;2.20;;;24.00;99.90;;;;;;4951534;28;20215;-68
2022/10/07 12:49:45;;;;;;;7.20;2.13;;;24.00;99.90;;;;;;4955802;28;20202;-68
2022/10/07 12:52:32;;;;;;;6.85;2.20;;;24.10;99.90;;;;;;4960555;28;20297;-68
2022/10/07 12:55:15;;;;;;;5.47;2.30;;;24.00;99.90;;;;;;4947007;28;20234;-68
2022/10/07 12:57:49;;;;;;;8.43;2.28;;;24.00;99.90;;;;;;4949878;28;20216;-68
2022/10/07 13:00:24;;;;;;;3.58;2.10;;;23.90;99.90;;;;;;4957385;28;20191;-68
2022/10/07 13:03:19;;;;;;;5.57;1.90;;;23.80;99.90;;;;;;4948049;28;20212;-68
2022/10/07 13:06:22;;;;;;;60.58;5.05;;;23.70;99.90;;;;;;4945316;29;20186;-68
2022/10/07 13:09:25;;;;;;;15.10;2.70;;;23.80;99.90;;;;;;4950873;28;20201;-68
2022/10/07 13:12:33;;;;;;;8.18;2.17;;;23.70;99.90;;;;;;4944878;29;20273;-68
2022/10/07 13:15:42;;;;;;;12.05;2.58;;;23.60;99.90;;;;;;4948756;28;20687;-68
2022/10/07 13:18:43;;;;;;;109.43;8.27;;;23.60;99.90;;;;;;4939266;29;20258;-68
2022/10/07 13:21:43;;;;;;;8.80;2.33;;;23.60;99.90;;;;;;4949575;29;20186;-68
2022/10/07 13:24:20;;;;;;;9.68;2.63;;;23.60;99.90;;;;;;4939023;28;20190;-68
2022/10/07 13:26:46;;;;;;;10.38;2.10;;;23.50;99.90;;;;;;4949449;29;20194;-68
2022/10/07 13:29:29;;;;;;;11.30;2.83;;;23.40;99.90;;;;;;4964258;28;20194;-68
2022/10/07 13:32:13;;;;;;;8.27;2.63;;;23.40;99.90;;;;;;4950030;28;20242;-68
2022/10/07 13:34:40;;;;;;;5.05;2.20;;;23.40;99.90;;;;;;4937054;28;20530;-68
2022/10/07 13:37:36;;;;;;;4.55;2.00;;;23.40;99.90;;;;;;4947364;29;20684;-68
2022/10/07 13:40:27;;;;;;;7.60;2.20;;;23.30;99.90;;;;;;4946433;28;20186;-68